Time;durP1;ratioP1;P1;durP2;ratioP2;P2;SDS_P1;SDS_P2;PMS_P1;PMS_P2;Temp;Humidity;BMP_temperature;BMP_pressure;BME280_temperature;BME280_humidity;BME280_pressure;Samples;Min_cycle;Max_cycle;Signal;HPM_P1;HPM_P2
2023/01/23 00:02:14;;;;;;;5.07;2.40;;;;;;;17.39;50.42;101600.19;5030215;28;20195;-61
2023/01/23 00:04:40;;;;;;;4.20;2.17;;;;;;;17.39;50.32;101595.34;5062157;28;20207;-62
2023/01/23 00:07:05;;;;;;;4.30;2.10;;;;;;;17.34;50.59;101592.63;5071035;28;20201;-62
2023/01/23 00:09:31;;;;;;;3.43;2.00;;;;;;;17.36;50.34;101595.97;5050235;28;20249;-61
2023/01/23 00:11:57;;;;;;;4.47;2.27;;;;;;;17.40;50.64;101597.00;5041083;28;20195;-61
2023/01/23 00:14:22;;;;;;;4.50;1.80;;;;;;;17.43;50.38;101595.50;5041665;28;20242;-61
2023/01/23 00:16:47;;;;;;;5.63;2.33;;;;;;;17.42;50.37;101588.97;5031023;28;20251;-61
2023/01/23 00:19:13;;;;;;;5.30;2.13;;;;;;;17.41;50.63;101595.81;5049142;28;20253;-60
2023/01/23 00:21:38;;;;;;;5.80;2.40;;;;;;;17.41;50.74;101595.81;5032782;28;20717;-61
2023/01/23 00:24:04;;;;;;;7.63;2.10;;;;;;;17.46;50.45;101592.78;5032867;28;20196;-61
2023/01/23 00:26:31;;;;;;;7.20;2.40;;;;;;;17.43;50.72;101587.78;5030944;28;20161;-61
2023/01/23 00:28:57;;;;;;;3.87;1.87;;;;;;;17.38;50.54;101582.22;5031004;28;20726;-61
2023/01/23 00:31:24;;;;;;;4.13;1.97;;;;;;;17.41;50.82;101587.25;5047178;28;20458;-61
2023/01/23 00:33:53;;;;;;;4.00;2.00;;;;;;;17.37;50.37;101583.41;5050047;28;20647;-61
2023/01/23 00:36:18;;;;;;;5.00;1.90;;;;;;;17.38;50.52;101576.50;5048832;28;20471;-61
2023/01/23 00:38:44;;;;;;;4.53;2.40;;;;;;;17.34;50.88;101577.53;5032710;28;20423;-61
2023/01/23 00:41:09;;;;;;;4.37;2.00;;;;;;;17.35;50.51;101574.34;5030666;28;20196;-61
2023/01/23 00:43:35;;;;;;;3.57;2.00;;;;;;;17.35;50.54;101567.81;5033112;28;20548;-61
2023/01/23 00:46:00;;;;;;;5.43;2.40;;;;;;;17.37;50.70;101586.25;5036995;28;20184;-61
2023/01/23 00:48:26;;;;;;;4.43;2.20;;;;;;;17.33;50.72;101575.84;5030819;28;20160;-61
2023/01/23 00:50:51;;;;;;;4.80;2.00;;;;;;;17.37;50.48;101576.84;5030776;28;20302;-61
2023/01/23 00:53:16;;;;;;;3.30;1.77;;;;;;;17.39;50.73;101583.06;5032803;28;20193;-61
2023/01/23 00:55:42;;;;;;;3.50;2.37;;;;;;;17.35;50.88;101579.22;5033352;28;20194;-61
2023/01/23 00:58:08;;;;;;;3.30;1.57;;;;;;;17.37;50.62;101586.25;5043945;28;20652;-61
2023/01/23 01:00:34;;;;;;;4.10;2.03;;;;;;;17.35;50.76;101594.31;5030375;28;20228;-61
2023/01/23 01:03:00;;;;;;;2.63;1.60;;;;;;;17.33;50.72;101593.81;5036346;28;20200;-62
2023/01/23 01:05:25;;;;;;;3.57;1.57;;;;;;;17.34;50.98;101601.22;5070558;28;20437;-61
2023/01/23 01:07:50;;;;;;;5.70;2.00;;;;;;;17.38;50.96;101595.66;5070293;28;20175;-61
2023/01/23 01:10:16;;;;;;;4.40;1.83;;;;;;;17.33;50.98;101593.81;5059864;28;20196;-61
2023/01/23 01:12:41;;;;;;;2.73;1.60;;;;;;;17.30;50.84;101594.50;5031486;28;20185;-61
2023/01/23 01:15:08;;;;;;;5.40;2.23;;;;;;;17.32;51.12;101594.16;5030474;28;20503;-61
2023/01/23 01:17:33;;;;;;;3.30;1.90;;;;;;;17.31;51.14;101593.31;5032823;28;20191;-61
2023/01/23 01:19:59;;;;;;;5.07;1.93;;;;;;;17.31;50.80;101601.88;5030382;28;20399;-61
2023/01/23 01:22:24;;;;;;;4.00;1.93;;;;;;;17.33;50.99;101595.84;5030295;28;20277;-61
2023/01/23 01:24:50;;;;;;;3.93;1.60;;;;;;;17.35;50.97;101599.19;5031180;28;20647;-61
2023/01/23 01:27:15;;;;;;;4.97;2.20;;;;;;;17.31;50.84;101604.72;5045533;28;20211;-61
2023/01/23 01:29:41;;;;;;;3.23;2.00;;;;;;;17.33;51.02;101605.25;5053784;28;20171;-61
2023/01/23 01:32:06;;;;;;;3.77;2.00;;;;;;;17.37;50.56;101605.41;5046816;28;20659;-61
2023/01/23 01:34:32;;;;;;;3.50;2.20;;;;;;;17.36;50.95;101595.97;5033818;28;20177;-61
2023/01/23 01:36:57;;;;;;;3.90;1.97;;;;;;;17.38;51.14;101607.06;5033764;28;20173;-61
2023/01/23 01:39:22;;;;;;;4.50;2.10;;;;;;;17.35;50.83;101599.19;5035819;28;20188;-62
2023/01/23 01:41:48;;;;;;;3.03;1.53;;;;;;;17.34;51.28;101604.06;5033567;28;20208;-61
2023/01/23 01:44:21;;;;;;;3.10;1.87;;;;;;;17.35;50.89;101602.88;5035666;28;20188;-61
2023/01/23 01:46:47;;;;;;;4.33;1.80;;;;;;;17.38;50.97;101607.06;5033519;28;20183;-61
2023/01/23 01:49:22;;;;;;;3.53;1.90;;;;;;;17.35;50.98;101605.72;5032832;28;20407;-61
2023/01/23 01:52:05;;;;;;;5.23;1.93;;;;;;;17.34;51.12;101597.50;5037903;28;20914;-61
2023/01/23 01:54:40;;;;;;;3.83;1.90;;;;;;;17.32;50.61;101606.44;5015772;28;20427;-61
2023/01/23 01:57:13;;;;;;;4.03;1.93;;;;;;;17.36;50.96;101603.72;5034266;28;20503;-61
2023/01/23 01:59:58;;;;;;;5.40;2.03;;;;;;;17.28;51.14;101605.44;5033143;28;20422;-61
2023/01/23 02:02:31;;;;;;;4.13;1.90;;;;;;;17.31;51.23;101609.63;5034122;28;20497;-61
2023/01/23 02:05:01;;;;;;;3.80;1.57;;;;;;;17.28;51.16;101611.13;5059552;28;20449;-61
2023/01/23 02:07:34;;;;;;;2.90;1.57;;;;;;;17.31;50.82;101621.03;5035669;28;20864;-62
2023/01/23 02:10:01;;;;;;;4.47;1.90;;;;;;;17.27;51.28;101626.59;5015728;28;20415;-61
2023/01/23 02:12:27;;;;;;;3.40;1.60;;;;;;;17.29;51.33;101618.50;5037864;28;20430;-62
2023/01/23 02:14:53;;;;;;;3.00;1.57;;;;;;;17.29;50.90;101618.50;5053358;28;20771;-61
2023/01/23 02:17:18;;;;;;;2.47;1.77;;;;;;;17.25;51.18;101623.22;5052536;28;20422;-61
2023/01/23 02:20:02;;;;;;;3.43;1.57;;;;;;;17.29;51.04;101623.38;5052820;28;20650;-62
2023/01/23 02:23:03;;;;;;;3.73;1.50;;;;;;;17.30;51.44;101634.47;5038516;28;20205;-62
2023/01/23 02:25:42;;;;;;;3.20;1.70;;;;;;;17.29;51.14;101629.09;5037672;28;20940;-62
2023/01/23 02:28:09;;;;;;;4.43;1.93;;;;;;;17.23;51.26;101639.88;5051380;28;20567;-61
2023/01/23 02:30:38;;;;;;;4.60;2.07;;;;;;;17.24;51.42;101635.81;5049072;28;20426;-62
2023/01/23 02:33:19;;;;;;;3.90;2.10;;;;;;;17.23;51.64;101631.31;5032621;28;20769;-62
2023/01/23 02:35:44;;;;;;;2.23;1.50;;;;;;;17.26;51.34;101633.44;5032446;28;20453;-61
2023/01/23 02:38:11;;;;;;;6.60;2.17;;;;;;;17.26;51.67;101630.59;5032693;28;21187;-61
2023/01/23 02:40:38;;;;;;;4.37;2.07;;;;;;;17.27;51.35;101635.16;5043523;28;20175;-61
2023/01/23 02:43:04;;;;;;;3.40;1.40;;;;;;;17.29;51.14;101629.09;5051930;28;20457;-62
2023/01/23 02:45:30;;;;;;;5.87;1.73;;;;;;;17.23;51.38;101631.31;5047113;28;20499;-62
2023/01/23 02:47:55;;;;;;;3.03;1.90;;;;;;;17.27;51.29;101632.31;5031927;28;20427;-61
2023/01/23 02:50:21;;;;;;;4.57;2.03;;;;;;;17.35;51.22;101634.28;5040986;28;20187;-61
2023/01/23 02:52:48;;;;;;;3.77;1.87;;;;;;;17.37;51.19;101634.78;5052241;28;20662;-61
2023/01/23 02:55:13;;;;;;;3.90;2.13;;;;;;;17.34;51.48;101631.75;5046815;28;20523;-61
2023/01/23 02:57:39;;;;;;;4.00;1.80;;;;;;;17.34;50.96;101632.59;5030782;28;20422;-61
2023/01/23 03:00:19;;;;;;;3.53;1.90;;;;;;;17.30;51.15;101625.91;5032053;28;20227;-62
2023/01/23 03:02:48;;;;;;;3.47;1.60;;;;;;;17.34;51.04;101621.19;5034201;28;20238;-61
2023/01/23 03:05:14;;;;;;;3.03;1.83;;;;;;;17.32;50.99;101615.00;5032074;28;20810;-62
2023/01/23 03:07:39;;;;;;;3.70;2.17;;;;;;;17.28;51.40;101621.72;5041938;28;20429;-61
2023/01/23 03:10:06;;;;;;;3.93;2.10;;;;;;;17.27;51.29;101625.75;5048232;28;20196;-62
2023/01/23 03:12:32;;;;;;;4.17;2.33;;;;;;;17.23;51.25;101625.59;5033561;28;20182;-61
2023/01/23 03:14:57;;;;;;;2.87;1.80;;;;;;;17.18;51.69;101628.63;5037011;28;20422;-61
2023/01/23 03:17:23;;;;;;;5.40;2.10;;;;;;;17.21;51.56;101621.41;5052018;28;20665;-61
2023/01/23 03:19:48;;;;;;;3.13;1.83;;;;;;;17.23;51.58;101625.59;5040012;28;20737;-61
2023/01/23 03:22:14;;;;;;;6.50;2.10;;;;;;;17.25;51.40;101626.06;5030295;28;20655;-61
2023/01/23 03:24:39;;;;;;;4.23;2.03;;;;;;;17.23;51.51;101636.16;5030137;28;20169;-61
2023/01/23 03:27:05;;;;;;;3.80;1.90;;;;;;;17.26;51.44;101639.16;5032253;28;20172;-61
2023/01/23 03:32:14;;;;;;;3.87;1.90;;;;;;;17.23;51.21;101631.31;5031639;28;20748;-61
2023/01/23 03:34:43;;;;;;;3.63;2.10;;;;;;;17.25;51.72;101623.22;5033760;28;20443;-61
2023/01/23 03:37:11;;;;;;;2.63;1.70;;;;;;;17.20;51.67;101631.16;5031470;28;20177;-61
2023/01/23 03:42:21;;;;;;;4.40;1.77;;;;;;;17.10;51.75;101620.91;5031240;28;20876;-62
2023/01/23 03:44:47;;;;;;;4.63;2.03;;;;;;;17.20;51.79;101625.44;5031400;28;20416;-61
2023/01/23 03:47:13;;;;;;;7.53;2.13;;;;;;;17.19;51.55;101630.28;5031139;28;20179;-61
2023/01/23 03:49:38;;;;;;;3.60;1.73;;;;;;;17.23;51.38;101622.75;5045333;28;20448;-61
2023/01/23 03:52:04;;;;;;;3.10;1.70;;;;;;;17.23;51.34;101617.03;5051212;28;20172;-61
2023/01/23 03:54:29;;;;;;;2.73;1.50;;;;;;;17.28;51.17;101611.13;5051173;28;20152;-61
2023/01/23 03:56:55;;;;;;;3.77;1.63;;;;;;;17.23;51.45;101608.47;5046161;28;20179;-61
2023/01/23 03:59:20;;;;;;;3.10;1.60;;;;;;;17.24;51.37;101601.56;5033535;28;20184;-61
2023/01/23 04:01:46;;;;;;;2.90;1.97;;;;;;;17.26;51.54;101596.34;5030953;28;20232;-61
2023/01/23 04:04:12;;;;;;;2.77;1.53;;;;;;;17.31;51.21;101603.91;5056958;28;20211;-61
2023/01/23 04:06:37;;;;;;;3.67;1.80;;;;;;;17.30;51.33;101603.06;5071098;28;20532;-62
2023/01/23 04:09:03;;;;;;;3.20;1.57;;;;;;;17.25;51.08;101605.28;5057482;28;20181;-61
2023/01/23 04:11:28;;;;;;;2.83;1.63;;;;;;;17.31;51.35;101612.47;5031038;28;20200;-61
2023/01/23 04:13:54;;;;;;;3.40;1.60;;;;;;;17.26;51.35;101624.06;5047993;28;20229;-61
2023/01/23 04:16:21;;;;;;;3.30;2.00;;;;;;;17.27;51.35;101631.44;5051097;28;20179;-61
2023/01/23 04:18:47;;;;;;;2.97;1.80;;;;;;;17.26;51.33;101629.78;5041259;28;20195;-61
2023/01/23 04:21:12;;;;;;;2.60;1.40;;;;;;;17.24;51.01;101630.13;5030709;28;20419;-61
2023/01/23 04:23:38;;;;;;;2.60;1.50;;;;;;;17.25;51.26;101626.06;5037850;28;20194;-61
2023/01/23 04:26:03;;;;;;;4.27;1.57;;;;;;;17.30;51.53;101625.91;5050849;28;20180;-61
2023/01/23 04:28:29;;;;;;;3.50;1.73;;;;;;;17.20;51.42;101631.97;5049632;28;20172;-62
2023/01/23 04:30:54;;;;;;;2.90;1.53;;;;;;;17.18;51.63;101634.34;5046667;28;20194;-61
2023/01/23 04:33:20;;;;;;;5.47;1.77;;;;;;;17.17;51.60;101632.66;5050829;28;20152;-62
2023/01/23 04:35:56;;;;;;;2.43;1.70;;;;;;;17.19;51.48;101633.16;5039469;28;20203;-62
2023/01/23 04:38:25;;;;;;;4.17;1.77;;;;;;;17.19;51.68;101638.84;5030772;28;20213;-61
2023/01/23 04:40:50;;;;;;;3.47;1.83;;;;;;;17.23;51.39;101633.31;5032422;28;20495;-61
2023/01/23 04:43:16;;;;;;;3.63;1.70;;;;;;;17.20;51.51;101649.09;5030043;28;20958;-61
2023/01/23 04:45:42;;;;;;;4.87;1.90;;;;;;;17.22;51.61;101643.03;5030487;28;20295;-61
2023/01/23 04:48:08;;;;;;;4.03;1.50;;;;;;;17.19;51.65;101647.41;5030629;28;20172;-62
2023/01/23 04:50:34;;;;;;;2.30;1.50;;;;;;;17.18;51.59;101645.75;5041011;28;20448;-61
2023/01/23 04:53:00;;;;;;;4.90;1.90;;;;;;;17.17;51.71;101654.66;5049591;28;20418;-61
2023/01/23 04:55:27;;;;;;;4.00;2.10;;;;;;;17.21;51.43;101644.22;5049993;28;20623;-61
2023/01/23 04:57:52;;;;;;;2.43;1.40;;;;;;;17.22;51.41;101657.31;5050451;28;20233;-61
2023/01/23 05:00:18;;;;;;;3.20;2.00;;;;;;;17.21;51.64;101662.16;5034929;28;20466;-61
2023/01/23 05:02:50;;;;;;;2.43;1.30;;;;;;;17.25;51.28;101653.81;5034586;28;20204;-61
2023/01/23 05:05:19;;;;;;;2.73;1.70;;;;;;;17.29;51.38;101663.34;5034366;28;20196;-61
2023/01/23 05:07:45;;;;;;;3.63;2.13;;;;;;;17.28;51.63;101662.50;5036531;28;20443;-61
2023/01/23 05:10:11;;;;;;;2.43;1.70;;;;;;;17.28;51.50;101653.94;5034136;28;20838;-61
2023/01/23 05:12:36;;;;;;;3.50;1.83;;;;;;;17.34;51.12;101649.72;5034343;28;20403;-61
2023/01/23 05:15:02;;;;;;;2.07;1.37;;;;;;;17.33;51.28;101642.34;5044818;28;20188;-61
2023/01/23 05:17:27;;;;;;;5.07;2.40;;;;;;;17.33;51.08;101652.91;5054080;28;20266;-62
2023/01/23 05:19:53;;;;;;;2.47;1.53;;;;;;;17.30;51.25;101643.03;5049916;28;20191;-61
2023/01/23 05:22:18;;;;;;;2.27;1.40;;;;;;;17.29;51.33;101651.91;5034054;28;20204;-60
2023/01/23 05:24:44;;;;;;;3.67;1.90;;;;;;;17.34;51.22;101643.16;5033979;28;20187;-61
2023/01/23 05:27:09;;;;;;;3.13;1.67;;;;;;;17.26;51.30;101646.91;5036453;28;20886;-61
2023/01/23 05:29:35;;;;;;;2.60;1.43;;;;;;;17.26;51.39;101653.44;5033727;28;20226;-61
2023/01/23 05:32:00;;;;;;;3.80;1.83;;;;;;;17.26;51.57;101655.47;5036344;28;20185;-61
2023/01/23 05:34:26;;;;;;;2.43;1.63;;;;;;;17.25;51.12;101663.19;5032440;28;20165;-61
2023/01/23 05:36:51;;;;;;;2.70;1.57;;;;;;;17.27;51.44;101662.84;5034197;28;20323;-61
2023/01/23 05:39:17;;;;;;;3.37;1.80;;;;;;;17.25;51.31;101666.03;5035975;28;20188;-62
2023/01/23 05:41:42;;;;;;;2.70;1.40;;;;;;;17.18;51.69;101662.03;5033563;28;20208;-61
2023/01/23 05:44:08;;;;;;;3.00;2.00;;;;;;;17.23;51.24;101659.00;5033775;28;20189;-61
2023/01/23 05:46:33;;;;;;;2.70;1.43;;;;;;;17.23;51.39;101668.41;5033728;28;20737;-61
2023/01/23 05:48:58;;;;;;;2.40;1.40;;;;;;;17.23;51.42;101670.41;5035940;28;20188;-61
2023/01/23 05:51:30;;;;;;;3.30;1.90;;;;;;;17.17;51.67;101668.91;5033680;28;20634;-61
2023/01/23 05:53:56;;;;;;;2.50;1.60;;;;;;;17.17;51.64;101661.19;5047139;28;20187;-61
2023/01/23 05:56:21;;;;;;;2.90;1.70;;;;;;;17.20;51.46;101671.91;5053246;28;20399;-61
2023/01/23 05:58:46;;;;;;;2.70;1.70;;;;;;;17.20;51.50;101666.22;5049937;28;20187;-61
2023/01/23 06:01:12;;;;;;;2.70;1.47;;;;;;;17.21;51.46;101667.06;5035566;28;20235;-61
2023/01/23 06:03:37;;;;;;;2.73;1.50;;;;;;;17.21;51.57;101679.28;5049210;28;20290;-61
2023/01/23 06:06:03;;;;;;;2.67;1.50;;;;;;;17.22;51.56;101672.44;5073073;28;20198;-61
2023/01/23 06:08:28;;;;;;;2.33;1.60;;;;;;;17.23;51.73;101676.09;5036240;28;20275;-62
2023/01/23 06:10:57;;;;;;;2.50;1.40;;;;;;;17.26;51.51;101672.59;5032685;28;20183;-61
2023/01/23 06:13:23;;;;;;;2.93;1.67;;;;;;;17.28;51.32;101665.38;5036890;28;20176;-61
2023/01/23 06:15:48;;;;;;;2.10;1.20;;;;;;;17.22;51.30;101672.44;5033017;28;20738;-61
2023/01/23 06:18:13;;;;;;;3.00;1.77;;;;;;;17.27;51.48;101666.56;5033387;28;20246;-62
2023/01/23 06:20:39;;;;;;;3.07;1.73;;;;;;;17.31;51.56;101666.69;5033225;28;20169;-61
2023/01/23 06:23:04;;;;;;;2.17;1.50;;;;;;;17.28;51.43;101656.81;5035008;28;20204;-61
2023/01/23 06:25:30;;;;;;;2.50;1.33;;;;;;;17.35;51.07;101662.00;5051403;28;20175;-61
2023/01/23 06:27:55;;;;;;;3.20;1.80;;;;;;;17.28;51.46;101665.38;5052369;28;20168;-61
2023/01/23 06:30:21;;;;;;;4.10;1.87;;;;;;;17.32;51.15;101662.66;5051989;28;20182;-61
2023/01/23 06:32:46;;;;;;;2.30;1.40;;;;;;;17.28;51.32;101662.50;5036190;28;20861;-61
2023/01/23 06:35:11;;;;;;;2.30;1.33;;;;;;;17.30;51.43;101668.72;5031103;28;20177;-61
2023/01/23 06:37:37;;;;;;;3.80;1.40;;;;;;;17.28;51.44;101679.63;5030660;28;20181;-61
2023/01/23 06:40:03;;;;;;;2.33;1.50;;;;;;;17.34;51.56;101675.41;5031099;28;20212;-61
2023/01/23 06:42:28;;;;;;;2.50;1.40;;;;;;;17.28;51.17;101679.63;5032597;28;20219;-60
2023/01/23 06:44:54;;;;;;;4.20;1.90;;;;;;;17.34;51.19;101683.97;5031824;28;20759;-61
2023/01/23 06:47:19;;;;;;;3.07;1.50;;;;;;;17.27;51.19;101682.81;5031728;28;20607;-61
2023/01/23 06:49:45;;;;;;;2.30;1.60;;;;;;;17.28;51.67;101684.50;5034343;28;20188;-61
2023/01/23 06:52:10;;;;;;;2.30;1.60;;;;;;;17.27;51.85;101695.09;5050477;28;20164;-60
2023/01/23 06:54:35;;;;;;;3.17;1.80;;;;;;;17.26;51.44;101693.38;5032948;28;20230;-61
2023/01/23 06:57:01;;;;;;;2.53;1.43;;;;;;;17.25;51.75;101702.31;5034470;28;20590;-61
2023/01/23 06:59:27;;;;;;;2.50;1.70;;;;;;;17.23;51.42;101707.50;5032187;28;20180;-61
2023/01/23 07:01:52;;;;;;;2.00;1.40;;;;;;;17.23;51.42;101705.50;5047298;28;20462;-61
2023/01/23 07:04:18;;;;;;;3.47;1.57;;;;;;;17.22;51.30;101706.69;5064778;28;20539;-61
2023/01/23 07:06:43;;;;;;;3.07;1.93;;;;;;;17.22;51.67;101706.69;5034046;28;20199;-61
2023/01/23 07:09:09;;;;;;;2.90;1.80;;;;;;;17.22;51.55;101717.25;5031106;28;20601;-61
2023/01/23 07:11:36;;;;;;;2.67;1.70;;;;;;;17.27;51.65;101725.63;5038835;28;20191;-61
2023/01/23 07:14:01;;;;;;;2.60;1.63;;;;;;;17.20;51.63;101729.00;5050006;28;20687;-60
2023/01/23 07:16:27;;;;;;;2.40;1.57;;;;;;;17.27;51.37;101734.19;5052972;28;20417;-61
2023/01/23 07:18:53;;;;;;;2.87;1.60;;;;;;;17.26;51.69;101727.63;5052480;28;20171;-61
2023/01/23 07:21:18;;;;;;;2.70;1.50;;;;;;;17.31;51.38;101735.22;5047257;28;20697;-61
2023/01/23 07:23:43;;;;;;;2.40;1.40;;;;;;;17.27;51.69;101737.06;5039192;28;20439;-61
2023/01/23 07:26:10;;;;;;;3.47;1.70;;;;;;;17.32;51.08;101737.72;5032305;28;20195;-61
2023/01/23 07:28:36;;;;;;;2.30;1.50;;;;;;;17.32;51.51;101736.88;5030960;28;20632;-61
2023/01/23 07:31:01;;;;;;;2.53;1.67;;;;;;;17.32;51.03;101731.16;5030653;28;20414;-61
2023/01/23 07:33:27;;;;;;;3.17;2.00;;;;;;;17.35;51.30;101736.22;5042603;28;20238;-61
2023/01/23 07:35:53;;;;;;;2.83;1.70;;;;;;;17.33;51.38;101727.97;5049298;28;20180;-61
2023/01/23 07:38:18;;;;;;;2.40;1.40;;;;;;;17.36;51.26;101743.59;5043012;28;20188;-61
2023/01/23 07:40:44;;;;;;;2.60;1.93;;;;;;;17.28;51.51;101735.88;5030004;28;20728;-60
2023/01/23 07:43:10;;;;;;;5.37;1.80;;;;;;;17.33;51.41;101735.69;5031309;28;20207;-61
2023/01/23 07:45:36;;;;;;;2.60;1.60;;;;;;;17.34;51.25;101741.06;5030990;28;20183;-61
2023/01/23 07:48:02;;;;;;;2.97;1.70;;;;;;;17.28;51.38;101741.56;5031961;28;20445;-61
2023/01/23 07:50:27;;;;;;;3.17;1.47;;;;;;;17.34;51.50;101737.38;5030811;28;21307;-61
2023/01/23 07:52:53;;;;;;;3.23;1.90;;;;;;;17.32;51.19;101736.88;5027347;28;20179;-61
2023/01/23 07:55:18;;;;;;;4.73;1.60;;;;;;;17.29;51.35;101741.25;5049695;28;20176;-61
2023/01/23 07:57:44;;;;;;;3.67;1.67;;;;;;;17.30;51.58;101734.34;5033746;28;20192;-61
2023/01/23 08:00:09;;;;;;;2.40;1.30;;;;;;;17.32;51.33;101734.88;5031190;28;20228;-60
2023/01/23 08:02:36;;;;;;;2.23;1.50;;;;;;;17.29;51.43;101738.41;5031337;28;20189;-61
2023/01/23 08:05:01;;;;;;;2.20;1.50;;;;;;;17.21;51.84;101739.22;5065319;28;20217;-61
2023/01/23 08:07:27;;;;;;;3.60;1.57;;;;;;;17.34;51.23;101734.50;5033294;28;20427;-61
2023/01/23 08:09:52;;;;;;;2.50;1.60;;;;;;;17.30;51.30;101742.91;5029864;28;20188;-60
2023/01/23 08:12:18;;;;;;;2.63;1.70;;;;;;;17.29;51.60;101737.53;5031072;28;20161;-61
2023/01/23 08:14:43;;;;;;;2.20;1.30;;;;;;;17.31;51.64;101730.31;5033274;28;20192;-61
2023/01/23 08:17:09;;;;;;;2.40;1.63;;;;;;;17.32;51.61;101734.88;5048370;28;20229;-61
2023/01/23 08:19:34;;;;;;;2.47;1.60;;;;;;;17.28;51.49;101739.56;5050799;28;20171;-61
2023/01/23 08:21:59;;;;;;;3.10;2.10;;;;;;;17.26;51.50;101736.19;5050518;28;20199;-61
2023/01/23 08:24:25;;;;;;;3.43;1.73;;;;;;;17.28;51.52;101733.88;5032120;28;20188;-61
2023/01/23 08:26:50;;;;;;;2.13;1.50;;;;;;;17.29;51.63;101731.84;5030761;28;20172;-61
2023/01/23 08:29:16;;;;;;;2.70;1.80;;;;;;;17.33;51.64;101730.84;5029628;28;20554;-61
2023/01/23 08:31:41;;;;;;;2.90;1.77;;;;;;;17.27;51.52;101725.63;5032648;28;20621;-61
2023/01/23 08:34:07;;;;;;;3.90;2.43;;;;;;;17.28;51.64;101736.72;5043267;28;20534;-61
2023/01/23 08:36:32;;;;;;;2.40;1.40;;;;;;;17.27;51.78;101726.50;5054988;28;20658;-60
2023/01/23 08:38:58;;;;;;;4.53;1.97;;;;;;;17.34;51.47;101735.38;5041429;28;20196;-61
2023/01/23 08:41:24;;;;;;;2.80;1.83;;;;;;;17.36;51.44;101735.84;5037011;28;20180;-61
2023/01/23 08:43:49;;;;;;;2.90;1.80;;;;;;;17.33;51.27;101730.84;5053311;28;20433;-60
2023/01/23 08:46:15;;;;;;;3.63;2.00;;;;;;;17.37;51.53;101731.00;5054871;28;20221;-61
2023/01/23 08:48:40;;;;;;;3.40;1.70;;;;;;;17.38;51.35;101730.66;5036382;28;20551;-61
2023/01/23 08:51:07;;;;;;;2.20;1.40;;;;;;;17.33;51.48;101725.13;5034736;28;20157;-61
2023/01/23 08:53:33;;;;;;;2.83;1.70;;;;;;;17.34;51.13;101735.38;5049075;28;20184;-61
2023/01/23 08:56:03;;;;;;;2.50;1.50;;;;;;;17.32;51.20;101729.16;5054434;28;20433;-61
2023/01/23 08:58:28;;;;;;;2.57;1.57;;;;;;;17.38;51.23;101726.97;5047749;28;20593;-62
2023/01/23 09:00:54;;;;;;;2.27;1.40;;;;;;;17.37;51.37;101734.69;5020756;28;20535;-61
2023/01/23 09:03:20;;;;;;;2.87;1.80;;;;;;;17.30;51.47;101728.66;5043799;28;20687;-61
2023/01/23 09:05:45;;;;;;;3.20;1.80;;;;;;;17.28;51.62;101736.72;5074692;28;20248;-61
2023/01/23 09:08:10;;;;;;;2.40;1.50;;;;;;;17.35;51.48;101736.22;5072102;28;20190;-61
2023/01/23 09:10:36;;;;;;;2.93;1.80;;;;;;;17.36;51.41;101735.03;5046709;28;20242;-61
2023/01/23 09:13:01;;;;;;;2.77;1.87;;;;;;;17.37;51.34;101742.41;5034358;28;20177;-61
2023/01/23 09:15:27;;;;;;;3.03;1.73;;;;;;;17.33;51.71;101727.97;5035080;28;20267;-61
2023/01/23 09:17:52;;;;;;;2.70;1.50;;;;;;;17.33;51.37;101733.69;5035431;28;20192;-61
2023/01/23 09:20:18;;;;;;;5.03;1.70;;;;;;;17.38;51.34;101744.94;5034365;28;20172;-61
2023/01/23 09:22:43;;;;;;;3.60;1.77;;;;;;;17.38;51.35;101744.94;5034071;28;20212;-61
2023/01/23 09:25:09;;;;;;;2.03;1.43;;;;;;;17.37;51.20;101740.41;5036361;28;20187;-61
2023/01/23 09:27:34;;;;;;;2.80;1.60;;;;;;;17.35;51.37;101745.59;5034087;28;20180;-61
2023/01/23 09:30:00;;;;;;;3.50;1.80;;;;;;;17.39;51.24;101742.94;5036522;28;20164;-61
2023/01/23 09:32:25;;;;;;;2.87;1.90;;;;;;;17.37;51.42;101740.41;5035628;28;20192;-61
2023/01/23 09:34:53;;;;;;;2.47;1.60;;;;;;;17.38;51.13;101742.09;5033838;28;20188;-61
2023/01/23 09:37:19;;;;;;;4.07;1.87;;;;;;;17.35;51.15;101739.06;5034091;28;20594;-61
2023/01/23 09:39:44;;;;;;;2.00;1.30;;;;;;;17.37;51.29;101750.97;5034528;28;20439;-61
2023/01/23 09:42:17;;;;;;;3.63;1.97;;;;;;;17.37;51.42;101753.81;5032573;28;20219;-61
2023/01/23 09:44:58;;;;;;;2.37;1.87;;;;;;;17.41;51.25;101744.28;5033679;28;20199;-61
2023/01/23 09:47:50;;;;;;;2.20;1.33;;;;;;;17.35;51.71;101751.31;5034014;28;21016;-61
2023/01/23 09:50:24;;;;;;;3.20;2.00;;;;;;;17.35;51.51;101754.16;5037545;28;20434;-61
2023/01/23 09:52:57;;;;;;;3.50;2.23;;;;;;;17.36;51.87;101733.00;5049010;28;20540;-61
2023/01/23 09:55:39;;;;;;;3.37;1.70;;;;;;;17.39;51.45;101738.06;5052119;28;20429;-61
2023/01/23 09:58:05;;;;;;;2.53;1.40;;;;;;;17.34;51.41;101743.06;5051051;28;20422;-61
2023/01/23 10:00:31;;;;;;;3.10;1.63;;;;;;;17.33;51.63;101732.84;5030483;28;20829;-61
2023/01/23 10:03:01;;;;;;;2.90;1.87;;;;;;;17.34;51.39;101731.66;5040147;28;20204;-61
2023/01/23 10:05:40;;;;;;;3.03;1.90;;;;;;;17.32;51.54;101729.16;5054996;28;20462;-61
2023/01/23 10:08:24;;;;;;;2.77;1.70;;;;;;;17.40;50.91;101727.50;5044862;28;20441;-62
2023/01/23 10:10:58;;;;;;;2.60;1.77;;;;;;;17.36;51.36;101720.75;5045647;28;20453;-61
2023/01/23 10:13:38;;;;;;;3.77;2.50;;;;;;;17.33;51.74;101727.13;5032975;28;20542;-62
2023/01/23 10:16:23;;;;;;;2.77;1.60;;;;;;;17.38;51.47;101730.66;5052803;28;20425;-62
2023/01/23 10:19:06;;;;;;;3.30;1.90;;;;;;;17.37;51.63;101739.56;5036464;28;20435;-61
2023/01/23 10:21:35;;;;;;;3.97;1.83;;;;;;;17.38;51.32;101739.22;5032032;28;20431;-61
2023/01/23 10:24:29;;;;;;;3.27;1.60;;;;;;;17.37;51.55;101740.41;5035155;28;20435;-62
2023/01/23 10:26:55;;;;;;;6.10;1.90;;;;;;;17.36;51.48;101735.03;5031636;28;20403;-62
2023/01/23 10:29:29;;;;;;;4.07;1.63;;;;;;;17.43;51.41;101741.09;5031546;28;20778;-61
2023/01/23 10:31:56;;;;;;;2.07;1.30;;;;;;;17.43;51.40;101733.38;5015151;28;20399;-62
2023/01/23 10:34:33;;;;;;;3.67;1.70;;;;;;;17.41;51.41;101740.59;5034995;28;20443;-62
2023/01/23 10:37:04;;;;;;;3.20;1.90;;;;;;;17.45;51.13;101738.75;5034703;28;20454;-62
2023/01/23 10:39:45;;;;;;;2.90;1.90;;;;;;;17.42;51.38;101742.25;5051648;28;20935;-61
2023/01/23 10:42:11;;;;;;;3.90;1.90;;;;;;;17.44;50.79;101749.31;5050976;28;20470;-62
2023/01/23 10:44:36;;;;;;;4.10;2.07;;;;;;;17.44;51.28;101749.31;5034681;28;20977;-61
2023/01/23 10:47:11;;;;;;;2.70;1.60;;;;;;;17.37;51.23;101746.13;5052128;28;20430;-61
2023/01/23 10:49:37;;;;;;;3.37;1.80;;;;;;;17.40;51.45;101736.88;5045606;28;20271;-61
2023/01/23 10:52:04;;;;;;;3.90;1.90;;;;;;;17.44;51.20;101740.75;5014837;28;21092;-62
2023/01/23 10:54:29;;;;;;;4.27;2.00;;;;;;;17.47;51.19;101739.22;5032387;28;20498;-62
2023/01/23 10:56:57;;;;;;;9.53;1.90;;;;;;;17.46;51.33;101738.38;5014747;28;20891;-62
2023/01/23 10:59:40;;;;;;;3.60;1.90;;;;;;;17.40;51.27;101751.16;5036575;28;20788;-62
2023/01/23 11:02:11;;;;;;;3.20;1.80;;;;;;;17.41;51.43;101746.31;5046222;28;20810;-62
2023/01/23 11:04:37;;;;;;;3.03;1.97;;;;;;;17.41;51.22;101740.59;5049264;28;20460;-62
2023/01/23 11:07:15;;;;;;;4.20;2.20;;;;;;;17.46;51.25;101746.13;5038443;28;20431;-61
2023/01/23 11:10:00;;;;;;;2.60;1.73;;;;;;;17.40;51.80;101745.47;5032268;28;20171;-62
2023/01/23 11:12:30;;;;;;;2.73;1.80;;;;;;;17.47;51.09;101745.81;5031171;28;20417;-61
2023/01/23 11:15:24;;;;;;;4.43;1.70;;;;;;;17.39;51.53;101734.38;5033389;28;20918;-62
2023/01/23 11:17:50;;;;;;;4.63;1.63;;;;;;;17.42;51.41;101739.41;5030155;28;20805;-62
2023/01/23 11:20:32;;;;;;;3.40;1.83;;;;;;;17.43;51.41;101738.22;5041743;28;20460;-61
2023/01/23 11:23:16;;;;;;;2.93;2.00;;;;;;;17.43;51.25;101738.22;5038443;28;20462;-62
2023/01/23 11:25:49;;;;;;;3.13;1.60;;;;;;;17.44;51.02;101737.03;5029623;28;20407;-62
2023/01/23 11:28:29;;;;;;;2.97;1.80;;;;;;;17.44;51.23;101734.19;5033288;28;20431;-60
2023/01/23 11:31:04;;;;;;;6.43;2.20;;;;;;;17.44;51.16;101731.34;5029898;28;20418;-61
2023/01/23 11:33:37;;;;;;;3.70;1.87;;;;;;;17.43;51.37;101739.09;5014061;28;20926;-62